createdAt,value
2022-10-29T00:01:57.739Z,0
2022-10-29T00:07:15.036Z,0
2022-10-29T00:12:32.378Z,0
2022-10-29T00:17:49.698Z,0
2022-10-29T00:28:27.209Z,0
2022-10-29T00:33:44.571Z,0
2022-10-29T00:39:02.016Z,0
2022-10-29T00:44:19.363Z,0
2022-10-29T00:49:38.663Z,0
2022-10-29T00:54:56.230Z,0
2022-10-29T01:00:13.452Z,0
2022-10-29T01:10:50.914Z,0
2022-10-29T01:21:25.411Z,0
2022-10-29T01:26:42.553Z,0
2022-10-29T01:32:28.048Z,0
2022-10-29T01:37:45.706Z,0
2022-10-29T01:43:03.206Z,0
2022-10-29T01:48:20.308Z,0
2022-10-29T01:53:38.071Z,0
2022-10-29T01:58:55.907Z,0
2022-10-29T02:09:44.523Z,0
2022-10-29T02:15:02.042Z,0
2022-10-29T02:20:19.602Z,0
2022-10-29T02:25:45.129Z,0
2022-10-29T02:31:02.655Z,0
2022-10-29T02:36:20.206Z,0
2022-10-29T02:41:55.342Z,0
2022-10-29T02:52:32.813Z,0
2022-10-29T02:57:50.291Z,0
2022-10-29T03:03:53.417Z,0
2022-10-29T03:09:11.304Z,0
2022-10-29T03:14:28.873Z,0
2022-10-29T03:25:07.646Z,0
2022-10-29T03:30:30.774Z,0
2022-10-29T03:41:38.876Z,0
2022-10-29T03:46:56.505Z,0
2022-10-29T03:52:14.137Z,0
2022-10-29T03:57:45.218Z,0
2022-10-29T04:03:03.059Z,0
2022-10-29T04:08:20.705Z,0
2022-10-29T04:13:47.240Z,0
2022-10-29T04:19:04.948Z,0
2022-10-29T04:30:42.518Z,0
2022-10-29T04:36:01.344Z,0
2022-10-29T04:41:18.991Z,0
2022-10-29T04:46:36.480Z,0
2022-10-29T04:51:54.408Z,0
2022-10-29T04:57:14.855Z,0
2022-10-29T05:02:32.545Z,0
2022-10-29T05:07:50.269Z,0
2022-10-29T05:13:07.697Z,0
2022-10-29T05:19:10.138Z,0
2022-10-29T05:24:28.021Z,0
2022-10-29T05:29:46.039Z,0
2022-10-29T05:35:48.655Z,0
2022-10-29T05:41:06.675Z,0
2022-10-29T05:46:26.394Z,0.2
2022-10-29T05:51:43.932Z,1.2
2022-10-29T05:57:22.482Z,4.1
2022-10-29T06:02:40.377Z,0.5
2022-10-29T06:07:57.902Z,31.7
2022-10-29T06:13:15.158Z,73.3
2022-10-29T06:18:32.139Z,125
2022-10-29T06:23:49.478Z,184.2
2022-10-29T06:29:06.390Z,279.2
2022-10-29T06:34:23.535Z,394.2
2022-10-29T06:44:58.222Z,688.7
2022-10-29T06:50:22.809Z,814.2
2022-10-29T06:55:40.223Z,1151.2
2022-10-29T07:06:15.055Z,1988.7
2022-10-29T07:11:32.536Z,2365.8
2022-10-29T07:16:49.974Z,2832.1
2022-10-29T07:22:07.394Z,3013.8
2022-10-29T07:27:25.016Z,3162.1
2022-10-29T07:32:51.917Z,3506.7
2022-10-29T07:38:11.036Z,4367.9
2022-10-29T07:44:14.681Z,4513.3
2022-10-29T07:49:32.614Z,4838.7
2022-10-29T07:54:49.827Z,4571.2
2022-10-29T08:05:11.627Z,5077.5
2022-10-29T08:10:28.856Z,5339.6
2022-10-29T08:15:45.660Z,4306.7
2022-10-29T08:21:02.633Z,5932.5
2022-10-29T08:26:20.385Z,9588.7
2022-10-29T08:31:37.486Z,8789.2
2022-10-29T08:42:13.960Z,7060
2022-10-29T08:47:30.701Z,7393.8
2022-10-29T08:52:52.767Z,6029.2
2022-10-29T08:58:15.906Z,7417.9
2022-10-29T09:03:35.767Z,7844.6
2022-10-29T09:09:15.525Z,7952.9
2022-10-29T09:14:32.745Z,7749.6
2022-10-29T09:37:27.407Z,7231.3
2022-10-29T09:42:43.734Z,7722.5
2022-10-29T09:48:29.693Z,7717.5
2022-10-29T09:53:47.053Z,6808.3
2022-10-29T09:59:03.936Z,6735.8
2022-10-29T10:04:21.188Z,5680.4
2022-10-29T10:09:38.781Z,6447.1
2022-10-29T10:14:57.500Z,8155.4
2022-10-29T10:25:31.821Z,8376.2
2022-10-29T12:07:42.976Z,5879.2
2022-10-29T13:13:56.128Z,7308.7
2022-10-29T13:19:17.795Z,6282.5
2022-10-29T13:24:34.792Z,6411.2
2022-10-29T13:29:51.524Z,6298.3
2022-10-29T13:35:19.794Z,7325.4
2022-10-29T13:40:39.272Z,8333.8
2022-10-29T13:45:56.495Z,7590
2022-10-29T13:51:13.728Z,7192.9
2022-10-29T13:56:30.393Z,6868.3
2022-10-29T14:01:47.457Z,6208.3
2022-10-29T14:07:07.548Z,5190.8
2022-10-29T14:12:24.365Z,4694.2
2022-10-29T14:17:41.321Z,6204.2
2022-10-29T14:22:58.606Z,7246.2
2022-10-29T14:28:15.733Z,6217.9
2022-10-29T14:33:32.680Z,5483.8
2022-10-29T14:38:49.636Z,5101.3
2022-10-29T14:44:06.308Z,3933.8
2022-10-29T14:49:23.391Z,3059.2
2022-10-29T14:54:40.174Z,3165.4
2022-10-29T14:59:56.730Z,2924.2
2022-10-29T15:05:13.601Z,2486.3
2022-10-29T15:10:30.728Z,2175.4
2022-10-29T15:15:48.047Z,1979.6
2022-10-29T15:21:04.799Z,1935
2022-10-29T15:26:21.542Z,1880.8
2022-10-29T15:36:58.586Z,1473.3
2022-10-29T15:42:15.586Z,1244.6
2022-10-29T15:47:32.419Z,1013.3
2022-10-29T15:52:49.337Z,787.1
2022-10-29T15:58:05.907Z,597.1
2022-10-29T16:03:23.460Z,450
2022-10-29T16:08:46.385Z,288.3
2022-10-29T16:14:03.728Z,160.4
2022-10-29T16:24:37.568Z,56.2
2022-10-29T16:29:54.517Z,25.8
2022-10-29T16:35:12.187Z,10.1
2022-10-29T16:40:29.441Z,3.5
2022-10-29T16:45:46.849Z,1.2
2022-10-29T16:51:04.159Z,0.3
2022-10-29T16:56:21.553Z,0
2022-10-29T17:01:38.869Z,0
2022-10-29T17:06:56.384Z,0
2022-10-29T17:17:16.166Z,0
2022-10-29T17:22:37.524Z,0
2022-10-29T17:27:55.361Z,0
2022-10-29T17:33:12.801Z,0
2022-10-29T17:38:32.951Z,0
2022-10-29T17:43:50.056Z,0
2022-10-29T17:49:07.508Z,0
2022-10-29T17:54:24.682Z,0
2022-10-29T17:59:44.076Z,0
2022-10-29T18:05:01.537Z,0
2022-10-29T18:10:18.815Z,0
2022-10-29T18:15:36.743Z,0
2022-10-29T18:20:54.068Z,0
2022-10-29T18:26:11.770Z,0
2022-10-29T18:31:29.196Z,0
2022-10-29T18:36:46.553Z,0
2022-10-29T18:42:04.179Z,0
2022-10-29T18:47:24.221Z,0
2022-10-29T18:52:41.680Z,0
2022-10-29T18:57:58.807Z,0
2022-10-29T19:03:16.883Z,0
2022-10-29T19:09:21.553Z,0
2022-10-29T19:14:39.349Z,0
2022-10-29T19:19:56.721Z,0
2022-10-29T19:25:14.622Z,0
2022-10-29T19:30:31.990Z,0
2022-10-29T19:35:49.396Z,0
2022-10-29T19:41:06.818Z,0
2022-10-29T19:46:24.669Z,0
2022-10-29T19:57:02.501Z,0
2022-10-29T20:02:19.821Z,0
2022-10-29T20:07:37.168Z,0
2022-10-29T20:12:54.508Z,0
2022-10-29T20:18:11.780Z,0
2022-10-29T20:23:28.817Z,0
2022-10-29T20:28:46.151Z,0
2022-10-29T20:34:03.545Z,0
2022-10-29T20:39:20.986Z,0
2022-10-29T20:44:40.665Z,0
2022-10-29T20:49:58.336Z,0
2022-10-29T20:55:15.331Z,0
2022-10-29T21:00:32.536Z,0
2022-10-29T21:05:49.895Z,0
2022-10-29T21:11:07.631Z,0
2022-10-29T21:16:24.850Z,0
2022-10-29T21:21:42.260Z,0
2022-10-29T21:27:06.724Z,0
2022-10-29T21:32:24.083Z,0
2022-10-29T21:37:41.277Z,0
2022-10-29T21:42:59.050Z,0
2022-10-29T21:48:18.947Z,0
2022-10-29T21:53:36.486Z,0
2022-10-29T21:58:53.754Z,0
2022-10-29T22:04:11.007Z,0
2022-10-29T22:09:28.407Z,0
2022-10-29T22:14:45.649Z,0
2022-10-29T22:20:03.302Z,0
2022-10-29T22:25:20.692Z,0
2022-10-29T22:30:45.608Z,0
2022-10-29T22:36:03.244Z,0
2022-10-29T22:41:20.596Z,0
2022-10-29T22:46:37.897Z,0
2022-10-29T22:58:01.516Z,0
2022-10-29T23:03:19.757Z,0
2022-10-29T23:08:36.836Z,0
2022-10-29T23:57:34.588Z,0
